SNQZ weather

Fazenda Bagagem Airport
Aral Moreira, Mato Grosso do Sul, Brazil

Public forecast

Using degrees Celsius for public forecast. Weather courtesy of forecast.io.

Closest aviation weather report (METAR) to Fazenda Bagagem Airport

Report is more than 6 hours old.

Closest report is Dr Augusto Roberto Fuster International Airport, 18.8 nm (34.9 km) NW. Retrieved 2020/01/22 15:00 UTC (1 month ago):

SGPJ 221500Z 33010KT 9999 BKN010 BKN080 26/22 Q1007

Closest aviation forecast (TAF) to Fazenda Bagagem Airport

Forecast is more than 6 hours old.

Closest forecast is Ponta PorĂ£ Airport, 19.1 nm (35.3 km) NNW. Retrieved 2020-02-27 00:45 UTC (8 hours ago):

TAF SBPP 262130Z 2700/2724 14007KT CAVOK TN16/2708Z TX26/2718Z PROB40 2706/2711 0500 FG VV001 BECMG 2711/2713 9999 FEW020 BECMG 2721/2723 03005KT CAVOK RMK PDW